Time;durP1;ratioP1;P1;durP2;ratioP2;P2;SDS_P1;SDS_P2;PMS_P1;PMS_P2;Temp;Humidity;BMP_temperature;BMP_pressure;BME280_temperature;BME280_humidity;BME280_pressure;Samples;Min_cycle;Max_cycle;Signal;HPM_P1;HPM_P2
2024/01/03 00:02:20;;;;;;;4.60;2.90;;;;;;;0.87;100.00;99251.16;109150;1254;71434;-53
2024/01/03 00:04:48;;;;;;;5.50;3.00;;;;;;;0.83;100.00;99255.00;109004;1256;58954;-54
2024/01/03 00:07:16;;;;;;;4.80;2.90;;;;;;;0.78;100.00;99249.95;109170;1254;60245;-53
2024/01/03 00:09:43;;;;;;;4.00;2.40;;;;;;;0.75;100.00;99252.35;109130;1254;74780;-53
2024/01/03 00:12:12;;;;;;;3.90;2.10;;;;;;;0.69;100.00;99255.73;109148;1254;65538;-53
2024/01/03 00:14:40;;;;;;;4.70;2.60;;;;;;;0.69;100.00;99261.44;109078;1254;72733;-55
2024/01/03 00:17:09;;;;;;;4.40;2.50;;;;;;;0.69;100.00;99262.08;109133;1254;59301;-53
2024/01/03 00:19:39;;;;;;;3.90;2.10;;;;;;;0.69;100.00;99261.27;109187;1254;58987;-53
2024/01/03 00:22:10;;;;;;;4.30;1.60;;;;;;;0.68;100.00;99262.73;109192;1254;74836;-53
2024/01/03 00:24:46;;;;;;;5.20;2.20;;;;;;;0.67;100.00;99264.96;109041;1256;67183;-55
2024/01/03 00:27:14;;;;;;;5.20;2.50;;;;;;;0.67;100.00;99268.23;109220;1254;72687;-53
2024/01/03 00:29:51;;;;;;;5.50;3.00;;;;;;;0.65;100.00;99273.02;109113;1254;59432;-53
2024/01/03 00:32:20;;;;;;;4.90;2.90;;;;;;;0.60;100.00;99276.42;109165;1255;60119;-53
2024/01/03 00:34:51;;;;;;;5.00;2.50;;;;;;;0.57;100.00;99278.63;109130;1254;74838;-53
2024/01/03 00:37:25;;;;;;;6.00;2.30;;;;;;;0.57;100.00;99277.96;109204;1254;66947;-53
2024/01/03 00:39:54;;;;;;;4.10;2.20;;;;;;;0.53;100.00;99276.42;109334;1253;70642;-54
2024/01/03 00:42:22;;;;;;;3.40;1.80;;;;;;;0.50;100.00;99279.48;109152;1256;59488;-54
2024/01/03 00:44:50;;;;;;;3.10;1.70;;;;;;;0.47;100.00;99280.54;109088;1256;60104;-54
2024/01/03 00:47:22;;;;;;;3.70;1.70;;;;;;;0.46;100.00;99282.17;109189;1254;74735;-54
2024/01/03 00:49:50;;;;;;;3.70;2.00;;;;;;;0.44;100.00;99288.70;109262;1254;66217;-54
2024/01/03 00:52:18;;;;;;;5.70;2.40;;;;;;;0.41;100.00;99290.85;109083;1256;72760;-55
2024/01/03 00:54:45;;;;;;;4.70;2.50;;;;;;;0.40;100.00;99292.98;109176;1254;61751;-53
2024/01/03 00:57:13;;;;;;;3.70;2.20;;;;;;;0.36;100.00;99291.84;109203;1254;59292;-54
2024/01/03 00:59:42;;;;;;;4.10;2.10;;;;;;;0.30;100.00;99293.37;109078;1257;74798;-54
2024/01/03 01:02:09;;;;;;;5.10;2.40;;;;;;;0.26;100.00;99297.92;109211;1254;67117;-53
2024/01/03 01:04:40;;;;;;;5.20;3.10;;;;;;;0.21;100.00;99303.92;109002;1255;72717;-54
2024/01/03 01:07:07;;;;;;;4.80;2.70;;;;;;;0.21;100.00;99302.93;109107;1254;61562;-54
2024/01/03 01:09:35;;;;;;;4.30;2.70;;;;;;;0.19;100.00;99306.23;109162;1256;60008;-53
2024/01/03 01:12:04;;;;;;;5.80;3.30;;;;;;;0.14;100.00;99304.80;109033;1254;74725;-53
2024/01/03 01:14:31;;;;;;;4.60;2.80;;;;;;;0.12;100.00;99312.84;109207;1254;65964;-54
2024/01/03 01:16:59;;;;;;;3.80;2.10;;;;;;;0.09;100.00;99313.77;109095;1256;73746;-53
2024/01/03 01:19:27;;;;;;;4.20;2.50;;;;;;;0.07;100.00;99313.48;109095;1256;60299;-54
2024/01/03 01:21:54;;;;;;;3.20;1.90;;;;;;;0.05;100.00;99324.27;109143;1254;59254;-54
2024/01/03 01:24:22;;;;;;;4.60;2.60;;;;;;;0.02;100.00;99326.55;109087;1257;74791;-56
2024/01/03 01:26:50;;;;;;;4.30;2.10;;;;;;;-0.02;100.00;99323.67;109135;1254;66840;-53
2024/01/03 01:29:17;;;;;;;4.20;2.30;;;;;;;-0.08;100.00;99331.21;109127;1254;70761;-53
2024/01/03 01:31:47;;;;;;;4.00;2.30;;;;;;;-0.10;100.00;99333.46;109103;1254;61157;-53
2024/01/03 01:34:15;;;;;;;3.70;2.10;;;;;;;-0.12;100.00;99335.84;109173;1254;60491;-54
2024/01/03 01:36:43;;;;;;;4.60;2.30;;;;;;;-0.17;100.00;99332.34;109198;1254;74740;-53
2024/01/03 01:39:11;;;;;;;4.50;2.60;;;;;;;-0.20;100.00;99338.63;109221;1254;67047;-54
2024/01/03 01:41:38;;;;;;;4.40;2.10;;;;;;;-0.23;100.00;99342.45;109115;1256;72763;-54
2024/01/03 01:44:07;;;;;;;3.80;2.10;;;;;;;-0.26;100.00;99343.89;109079;1257;59420;-53
2024/01/03 01:46:36;;;;;;;5.60;3.00;;;;;;;-0.28;100.00;99342.83;109134;1254;60182;-54
2024/01/03 01:49:04;;;;;;;5.60;2.60;;;;;;;-0.29;100.00;99342.67;109088;1256;74761;-53
2024/01/03 01:51:35;;;;;;;4.80;2.10;;;;;;;-0.34;100.00;99343.72;109107;1254;67613;-53
2024/01/03 01:54:03;;;;;;;5.20;2.20;;;;;;;-0.38;100.00;99340.67;109075;1254;72646;-54
2024/01/03 01:56:31;;;;;;;3.60;1.80;;;;;;;-0.42;100.00;99341.91;109085;1257;59399;-53
2024/01/03 01:58:59;;;;;;;3.40;1.90;;;;;;;-0.45;100.00;99343.23;109087;1255;59301;-53
2024/01/03 02:01:27;;;;;;;5.50;2.40;;;;;;;-0.45;100.00;99345.23;109097;1254;74826;-54
2024/01/03 02:03:55;;;;;;;4.90;2.50;;;;;;;-0.47;100.00;99347.17;109138;1254;67077;-53
2024/01/03 02:06:23;;;;;;;4.60;2.00;;;;;;;-0.48;100.00;99347.59;109080;1257;72756;-54
2024/01/03 02:08:50;;;;;;;4.60;2.20;;;;;;;-0.47;100.00;99348.81;109119;1254;58988;-53
2024/01/03 02:11:18;;;;;;;5.30;2.30;;;;;;;-0.46;100.00;99345.30;109196;1254;60561;-53
2024/01/03 02:13:49;;;;;;;4.10;2.20;;;;;;;-0.48;100.00;99353.21;109184;1254;74651;-53
2024/01/03 02:16:17;;;;;;;4.90;2.20;;;;;;;-0.48;100.00;99354.95;109085;1254;66945;-54
2024/01/03 02:18:44;;;;;;;4.90;2.70;;;;;;;-0.49;100.00;99355.13;108993;1254;72700;-52
2024/01/03 02:21:14;;;;;;;5.60;2.40;;;;;;;-0.52;100.00;99355.37;109078;1256;59320;-53
2024/01/03 02:23:42;;;;;;;4.00;2.00;;;;;;;-0.54;100.00;99360.67;109115;1254;59108;-53
2024/01/03 02:26:10;;;;;;;4.10;2.50;;;;;;;-0.56;100.00;99359.01;109170;1256;74721;-53
2024/01/03 02:28:52;;;;;;;3.90;2.10;;;;;;;-0.60;100.00;99360.34;109117;1255;66917;-53
2024/01/03 02:31:19;;;;;;;4.90;2.70;;;;;;;-0.63;100.00;99361.01;109196;1254;70746;-52
2024/01/03 02:33:47;;;;;;;5.10;2.70;;;;;;;-0.68;100.00;99368.09;109098;1254;59424;-52
2024/01/03 02:36:15;;;;;;;5.00;2.80;;;;;;;-0.71;100.00;99363.89;109153;1254;60434;-53
2024/01/03 02:38:43;;;;;;;6.00;3.00;;;;;;;-0.75;100.00;99370.86;109108;1254;74830;-53
2024/01/03 02:41:11;;;;;;;4.90;2.60;;;;;;;-0.77;100.00;99371.71;108972;1254;67039;-52
2024/01/03 02:43:38;;;;;;;4.70;2.70;;;;;;;-0.77;100.00;99371.92;109122;1254;72688;-52
2024/01/03 02:46:06;;;;;;;6.00;2.90;;;;;;;-0.80;100.00;99375.73;109262;1254;59645;-52
2024/01/03 02:48:34;;;;;;;5.80;3.20;;;;;;;-0.83;100.00;99377.25;109117;1254;59080;-53
2024/01/03 02:51:01;;;;;;;5.50;3.20;;;;;;;-0.85;100.00;99381.45;109160;1254;73341;-53
2024/01/03 02:53:29;;;;;;;5.50;3.30;;;;;;;-0.86;100.00;99383.25;109171;1257;66199;-52
2024/01/03 02:55:57;;;;;;;4.90;3.00;;;;;;;-0.88;100.00;99383.40;109146;1254;72729;-52
2024/01/03 02:58:25;;;;;;;4.60;2.70;;;;;;;-0.89;100.00;99383.41;109147;1254;59220;-52
2024/01/03 03:00:53;;;;;;;6.40;3.70;;;;;;;-0.90;100.00;99385.16;109007;1254;177376;-53
2024/01/03 03:03:20;;;;;;;6.60;3.40;;;;;;;-0.92;100.00;99388.09;109152;1254;73863;-52
2024/01/03 03:05:48;;;;;;;6.30;3.50;;;;;;;-0.92;100.00;99392.69;109129;1254;65649;-53
2024/01/03 03:08:16;;;;;;;7.30;4.00;;;;;;;-0.92;100.00;99393.15;109107;1254;72773;-52
2024/01/03 03:10:43;;;;;;;7.00;3.80;;;;;;;-0.94;100.00;99392.02;109159;1254;59500;-55
2024/01/03 03:13:11;;;;;;;6.60;3.80;;;;;;;-0.98;100.00;99396.23;109210;1256;59009;-52
2024/01/03 03:15:39;;;;;;;5.90;3.10;;;;;;;-1.02;100.00;99401.35;109144;1254;73422;-52
2024/01/03 03:18:07;;;;;;;6.20;3.80;;;;;;;-1.06;100.00;99410.04;109116;1254;67483;-58
2024/01/03 03:20:35;;;;;;;7.20;4.50;;;;;;;-1.08;100.00;99410.16;109078;1254;72831;-53
2024/01/03 03:23:03;;;;;;;8.50;4.70;;;;;;;-1.08;100.00;99416.54;109122;1254;59218;-52
2024/01/03 03:25:31;;;;;;;9.40;4.70;;;;;;;-1.12;100.00;99422.14;109143;1254;58964;-52
2024/01/03 03:27:58;;;;;;;8.10;4.60;;;;;;;-1.14;100.00;99425.91;109197;1254;73915;-52
2024/01/03 03:30:26;;;;;;;8.50;5.10;;;;;;;-1.17;100.00;99429.03;109093;1256;67088;-54
2024/01/03 03:32:53;;;;;;;7.80;4.70;;;;;;;-1.19;100.00;99433.17;109201;1254;72831;-52
2024/01/03 03:35:21;;;;;;;7.90;4.90;;;;;;;-1.22;100.00;99437.64;109197;1254;59331;-52
2024/01/03 03:37:49;;;;;;;8.50;5.10;;;;;;;-1.25;100.00;99440.45;109120;1254;59488;-52
2024/01/03 03:40:17;;;;;;;8.70;5.80;;;;;;;-1.26;100.00;99445.96;109273;1254;74752;-52
2024/01/03 03:42:46;;;;;;;8.30;5.30;;;;;;;-1.29;100.00;99444.85;109054;1254;65645;-52
2024/01/03 03:45:13;;;;;;;8.10;5.00;;;;;;;-1.31;100.00;99446.16;109204;1254;72785;-52
2024/01/03 03:47:41;;;;;;;10.80;5.30;;;;;;;-1.31;100.00;99443.50;109151;1254;60927;-52
2024/01/03 03:50:09;;;;;;;9.30;4.40;;;;;;;-1.32;100.00;99446.15;109125;1254;60090;-53
2024/01/03 03:52:39;;;;;;;9.00;5.10;;;;;;;-1.33;100.00;99455.91;109163;1254;74741;-55
2024/01/03 03:55:07;;;;;;;7.60;4.60;;;;;;;-1.33;100.00;99462.42;109092;1260;66963;-52
2024/01/03 03:57:35;;;;;;;8.50;4.90;;;;;;;-1.34;100.00;99463.66;109180;1254;72375;-52
2024/01/03 04:00:06;;;;;;;7.60;4.80;;;;;;;-1.39;100.00;99466.67;109132;1256;60912;-52
2024/01/03 04:02:39;;;;;;;7.60;4.20;;;;;;;-1.49;100.00;99468.64;109125;1258;58969;-52
2024/01/03 04:05:07;;;;;;;6.70;4.50;;;;;;;-1.54;100.00;99474.88;109223;1254;74087;-52
2024/01/03 04:07:36;;;;;;;9.60;4.70;;;;;;;-1.60;100.00;99476.20;109192;1254;66289;-52
2024/01/03 04:10:05;;;;;;;7.60;4.50;;;;;;;-1.65;100.00;99482.05;109241;1254;71509;-54
2024/01/03 04:12:36;;;;;;;6.90;4.20;;;;;;;-1.69;100.00;99483.41;109198;1254;61312;-52
2024/01/03 04:15:04;;;;;;;7.60;4.50;;;;;;;-1.73;100.00;99483.70;109101;1259;59551;-52
2024/01/03 04:17:33;;;;;;;8.30;4.80;;;;;;;-1.80;100.00;99484.94;109104;1254;74737;-53
2024/01/03 04:20:00;;;;;;;7.50;4.60;;;;;;;-1.86;100.00;99489.04;109209;1254;65639;-53
2024/01/03 04:22:28;;;;;;;9.50;5.60;;;;;;;-1.93;100.00;99493.35;109162;1257;71375;-52
2024/01/03 04:24:56;;;;;;;7.70;4.40;;;;;;;-2.01;100.00;99496.30;109112;1254;59978;-52
2024/01/03 04:27:25;;;;;;;7.80;4.60;;;;;;;-2.06;100.00;99502.19;109200;1254;58931;-51
2024/01/03 04:29:52;;;;;;;9.00;5.10;;;;;;;-2.12;100.00;99502.64;109122;1254;74749;-52
2024/01/03 04:32:20;;;;;;;8.30;5.20;;;;;;;-2.14;100.00;99510.80;109102;1254;65662;-52
2024/01/03 04:34:48;;;;;;;11.70;5.80;;;;;;;-2.18;100.00;99513.83;109107;1256;71450;-52
2024/01/03 04:37:15;;;;;;;9.20;4.70;;;;;;;-2.21;100.00;99513.74;109132;1254;60866;-53
2024/01/03 04:39:43;;;;;;;8.20;5.00;;;;;;;-2.24;100.00;99524.19;109207;1254;59025;-52
2024/01/03 04:42:10;;;;;;;10.70;5.70;;;;;;;-2.28;100.00;99528.27;109092;1254;74904;-52
2024/01/03 04:44:39;;;;;;;10.90;5.20;;;;;;;-2.32;100.00;99531.25;109165;1254;66972;-52
2024/01/03 04:47:07;;;;;;;8.20;5.10;;;;;;;-2.33;100.00;99529.13;109178;1254;73108;-52
2024/01/03 04:49:35;;;;;;;10.00;5.60;;;;;;;-2.35;100.00;99531.52;109201;1254;59042;-52
2024/01/03 04:52:02;;;;;;;8.70;5.40;;;;;;;-2.36;100.00;99536.02;109119;1254;59321;-52
2024/01/03 04:54:30;;;;;;;11.00;5.90;;;;;;;-2.37;100.00;99536.58;109160;1254;73463;-52
2024/01/03 04:56:58;;;;;;;9.20;5.50;;;;;;;-2.40;100.00;99538.48;109309;1254;65639;-52
2024/01/03 04:59:26;;;;;;;7.60;4.60;;;;;;;-2.44;100.00;99539.86;109101;1254;72854;-52
2024/01/03 05:01:54;;;;;;;8.90;4.80;;;;;;;-2.51;100.00;99540.54;109179;1254;58983;-52
2024/01/03 05:04:21;;;;;;;9.00;5.00;;;;;;;-2.56;100.00;99548.40;109178;1254;60042;-52
2024/01/03 05:06:50;;;;;;;8.00;4.70;;;;;;;-2.60;100.00;99557.27;109123;1254;74756;-52
2024/01/03 05:09:18;;;;;;;7.70;4.60;;;;;;;-2.67;100.00;99564.05;109174;1254;65697;-51
2024/01/03 05:11:46;;;;;;;7.50;4.70;;;;;;;-2.73;100.00;99567.38;109187;1254;71437;-51
2024/01/03 05:14:14;;;;;;;9.90;5.20;;;;;;;-2.77;100.00;99571.29;109141;1254;59447;-52
2024/01/03 05:16:42;;;;;;;7.50;3.90;;;;;;;-2.80;100.00;99578.50;109236;1254;59087;-52
2024/01/03 05:19:09;;;;;;;7.30;4.00;;;;;;;-2.82;100.00;99585.21;109233;1254;74735;-52
2024/01/03 05:21:37;;;;;;;6.60;4.20;;;;;;;-2.85;100.00;99584.13;109250;1254;66964;-51
2024/01/03 05:24:05;;;;;;;8.40;4.60;;;;;;;-2.90;100.00;99582.91;109125;1254;71361;-52
2024/01/03 05:26:32;;;;;;;7.90;5.00;;;;;;;-2.95;100.00;99584.85;109165;1257;58908;-51
2024/01/03 05:29:00;;;;;;;9.10;4.80;;;;;;;-3.01;100.00;99585.95;109196;1254;59053;-51
2024/01/03 05:31:28;;;;;;;8.40;4.90;;;;;;;-3.04;100.00;99590.60;109218;1254;73046;-51
2024/01/03 05:33:55;;;;;;;9.30;5.50;;;;;;;-3.05;100.00;99598.70;109128;1254;67097;-52
2024/01/03 05:36:23;;;;;;;8.20;5.00;;;;;;;-3.04;100.00;99602.53;109161;1254;71437;-52
2024/01/03 05:38:51;;;;;;;9.00;4.90;;;;;;;-3.05;100.00;99606.96;109147;1254;59038;-51
2024/01/03 05:41:18;;;;;;;9.00;4.90;;;;;;;-3.06;100.00;99610.36;109156;1254;58900;-51
2024/01/03 05:43:46;;;;;;;9.80;4.90;;;;;;;-3.09;100.00;99612.38;109227;1254;74735;-51
2024/01/03 05:46:14;;;;;;;8.40;4.90;;;;;;;-3.10;100.00;99620.16;109155;1254;65896;-53
2024/01/03 05:48:42;;;;;;;7.10;4.20;;;;;;;-3.13;100.00;99625.95;109308;1254;72745;-51
2024/01/03 05:51:10;;;;;;;8.00;4.70;;;;;;;-3.15;100.00;99627.81;109266;1254;59017;-52
2024/01/03 05:53:39;;;;;;;8.60;4.80;;;;;;;-3.20;100.00;99626.23;109214;1254;59608;-51
2024/01/03 05:56:07;;;;;;;7.60;4.50;;;;;;;-3.22;100.00;99624.20;109158;1254;73463;-52
2024/01/03 05:58:35;;;;;;;10.10;4.90;;;;;;;-3.26;100.00;99625.50;109296;1254;66395;-51
2024/01/03 06:01:06;;;;;;;9.70;5.70;;;;;;;-3.31;100.00;99626.72;109121;1254;71777;-52
2024/01/03 06:03:34;;;;;;;10.20;5.10;;;;;;;-3.34;100.00;99623.67;109188;1254;60959;-51
2024/01/03 06:06:02;;;;;;;8.70;5.50;;;;;;;-3.35;100.00;99626.38;109208;1254;60098;-52
2024/01/03 06:08:29;;;;;;;9.80;5.60;;;;;;;-3.35;100.00;99625.95;109055;1257;74758;-54
2024/01/03 06:10:57;;;;;;;8.90;5.40;;;;;;;-3.35;100.00;99627.55;109256;1254;68175;-51
2024/01/03 06:13:25;;;;;;;9.20;5.20;;;;;;;-3.35;100.00;99629.55;109280;1254;71203;-52
2024/01/03 06:15:52;;;;;;;10.40;6.00;;;;;;;-3.34;100.00;99630.52;109170;1254;60142;-51
2024/01/03 06:18:23;;;;;;;9.90;5.20;;;;;;;-3.34;100.00;99637.44;109133;1254;58913;-51
2024/01/03 06:20:51;;;;;;;9.80;5.50;;;;;;;-3.35;100.00;99638.55;109081;1254;74712;-51
2024/01/03 06:23:18;;;;;;;8.70;5.50;;;;;;;-3.37;100.00;99639.91;109213;1254;66917;-51
2024/01/03 06:25:46;;;;;;;9.60;5.60;;;;;;;-3.39;100.00;99646.33;109136;1254;72753;-51
2024/01/03 06:28:14;;;;;;;9.00;5.30;;;;;;;-3.40;100.00;99645.23;109208;1254;60153;-51
2024/01/03 06:30:43;;;;;;;11.30;6.20;;;;;;;-3.43;100.00;99639.76;109195;1254;58990;-54
2024/01/03 06:33:10;;;;;;;9.20;5.40;;;;;;;-3.44;100.00;99641.73;109120;1254;74738;-51
2024/01/03 06:35:38;;;;;;;9.10;5.00;;;;;;;-3.42;100.00;99643.66;109217;1254;66976;-51
2024/01/03 06:38:06;;;;;;;8.90;5.20;;;;;;;-3.41;100.00;99640.86;109256;1254;72764;-51
2024/01/03 06:40:34;;;;;;;8.60;5.10;;;;;;;-3.42;100.00;99636.70;109225;1254;60150;-55
2024/01/03 06:43:02;;;;;;;11.00;6.40;;;;;;;-3.45;100.00;99641.81;109174;1254;58874;-52
2024/01/03 06:45:29;;;;;;;8.80;5.80;;;;;;;-3.46;100.00;99636.92;109234;1254;73753;-51
2024/01/03 06:47:57;;;;;;;9.90;5.80;;;;;;;-3.44;100.00;99638.02;109300;1253;67076;-51
2024/01/03 06:50:25;;;;;;;9.70;5.90;;;;;;;-3.40;100.00;99643.37;109213;1254;72843;-51
2024/01/03 06:52:52;;;;;;;9.30;5.20;;;;;;;-3.36;100.00;99646.16;109179;1254;59032;-52
2024/01/03 06:55:20;;;;;;;10.90;6.30;;;;;;;-3.34;100.00;99647.50;109229;1254;59649;-52
2024/01/03 06:57:48;;;;;;;11.00;5.60;;;;;;;-3.33;100.00;99653.05;109120;1254;73358;-51
2024/01/03 07:00:17;;;;;;;9.60;5.70;;;;;;;-3.31;100.00;99653.61;109157;1254;67430;-51
2024/01/03 07:02:44;;;;;;;9.40;5.30;;;;;;;-3.31;100.00;99653.23;109071;1256;72743;-51
2024/01/03 07:05:12;;;;;;;10.30;5.80;;;;;;;-3.35;100.00;99659.48;109112;1254;58998;-51
2024/01/03 07:07:40;;;;;;;10.30;5.80;;;;;;;-3.37;100.00;99660.42;109223;1254;58876;-52
2024/01/03 07:10:08;;;;;;;10.10;5.30;;;;;;;-3.36;100.00;99665.96;109089;1254;74917;-50
2024/01/03 07:12:37;;;;;;;9.40;5.60;;;;;;;-3.36;100.00;99665.34;109215;1254;65960;-54
2024/01/03 07:15:06;;;;;;;10.00;5.40;;;;;;;-3.37;100.00;99670.48;109176;1254;73765;-51
2024/01/03 07:17:33;;;;;;;10.40;5.40;;;;;;;-3.38;100.00;99676.16;109095;1254;58962;-52
2024/01/03 07:20:01;;;;;;;9.30;5.50;;;;;;;-3.38;100.00;99678.39;109225;1254;59031;-51
2024/01/03 07:22:29;;;;;;;12.00;6.40;;;;;;;-3.40;100.00;99679.88;109212;1254;73415;-51
2024/01/03 07:24:56;;;;;;;9.20;5.00;;;;;;;-3.41;100.00;99680.58;109131;1254;67005;-54
2024/01/03 07:27:24;;;;;;;8.30;4.70;;;;;;;-3.42;100.00;99683.39;109189;1254;72780;-52
2024/01/03 07:29:53;;;;;;;9.50;5.70;;;;;;;-3.42;100.00;99681.54;109090;1256;59551;-52
2024/01/03 07:32:21;;;;;;;10.30;6.40;;;;;;;-3.43;100.00;99683.12;109164;1254;59097;-51
2024/01/03 07:34:48;;;;;;;11.40;5.30;;;;;;;-3.43;100.00;99685.64;109106;1254;73479;-51
2024/01/03 07:37:16;;;;;;;9.60;4.80;;;;;;;-3.42;100.00;99682.70;109175;1254;67660;-51
2024/01/03 07:39:44;;;;;;;8.00;4.70;;;;;;;-3.44;100.00;99685.71;109165;1254;72684;-51
2024/01/03 07:42:12;;;;;;;10.20;5.80;;;;;;;-3.42;100.00;99684.92;109206;1254;59508;-51
2024/01/03 07:44:42;;;;;;;9.90;5.50;;;;;;;-3.41;100.00;99685.39;109217;1254;59475;-51
2024/01/03 07:47:10;;;;;;;10.00;5.70;;;;;;;-3.43;100.00;99688.35;109198;1254;74735;-54
2024/01/03 07:49:37;;;;;;;10.00;4.90;;;;;;;-3.41;100.00;99691.30;109185;1254;66894;-52
2024/01/03 07:52:05;;;;;;;9.50;5.70;;;;;;;-3.37;100.00;99695.81;109214;1254;72755;-52
2024/01/03 07:54:33;;;;;;;9.10;4.70;;;;;;;-3.34;100.00;99692.84;109141;1254;59039;-52
2024/01/03 07:57:04;;;;;;;10.20;5.40;;;;;;;-3.34;100.00;99691.31;109253;1254;60104;-52
2024/01/03 07:59:32;;;;;;;9.60;5.20;;;;;;;-3.36;100.00;99693.00;109266;1254;74789;-51
2024/01/03 08:02:00;;;;;;;9.60;5.50;;;;;;;-3.37;100.00;99692.05;109221;1254;67033;-52
2024/01/03 08:04:28;;;;;;;10.70;5.70;;;;;;;-3.39;100.00;99693.38;109161;1254;71436;-51
2024/01/03 08:06:55;;;;;;;10.00;5.20;;;;;;;-3.37;100.00;99691.58;109133;1254;60555;-53
2024/01/03 08:09:23;;;;;;;10.00;5.40;;;;;;;-3.33;100.00;99696.84;109224;1254;59436;-52
2024/01/03 08:11:51;;;;;;;7.90;4.90;;;;;;;-3.30;100.00;99695.46;109286;1253;73472;-51
2024/01/03 08:14:18;;;;;;;9.20;5.00;;;;;;;-3.25;100.00;99696.46;109259;1254;67053;-51
2024/01/03 08:16:46;;;;;;;9.20;4.90;;;;;;;-3.20;100.00;99695.58;109134;1254;72974;-51
2024/01/03 08:19:13;;;;;;;9.00;5.30;;;;;;;-3.13;100.00;99698.71;109171;1254;59007;-55
2024/01/03 08:21:42;;;;;;;10.30;5.40;;;;;;;-3.07;100.00;99693.18;109089;1255;61112;-51
2024/01/03 08:24:09;;;;;;;8.00;4.50;;;;;;;-3.04;100.00;99691.75;109092;1254;76790;-51
2024/01/03 08:26:37;;;;;;;8.70;4.80;;;;;;;-2.98;100.00;99688.11;109276;1254;67117;-51
2024/01/03 08:29:05;;;;;;;7.00;4.20;;;;;;;-2.89;100.00;99689.67;109130;1255;72725;-51
2024/01/03 08:31:33;;;;;;;10.20;5.50;;;;;;;-2.83;100.00;99688.38;109103;1254;59078;-53
2024/01/03 08:34:01;;;;;;;7.60;4.90;;;;;;;-2.81;100.00;99694.29;109146;1254;58976;-51
2024/01/03 08:36:45;;;;;;;8.30;4.50;;;;;;;-2.77;100.00;99695.05;109245;1254;73392;-51
2024/01/03 08:39:12;;;;;;;8.70;5.00;;;;;;;-2.75;100.00;99693.04;109106;1254;66798;-51
2024/01/03 08:41:40;;;;;;;10.00;4.90;;;;;;;-2.74;100.00;99692.77;109250;1253;72740;-51
2024/01/03 08:44:08;;;;;;;9.20;5.40;;;;;;;-2.69;100.00;99698.04;109095;1254;59437;-51
2024/01/03 08:46:39;;;;;;;9.70;5.20;;;;;;;-2.68;100.00;99702.60;109233;1254;58956;-51
2024/01/03 08:49:07;;;;;;;;;;;;;;;-2.73;100.00;99705.44;109231;1254;74753;-52
2024/01/03 08:51:35;;;;;;;9.30;4.80;;;;;;;-2.71;100.00;99704.98;109169;1254;65811;-52
2024/01/03 08:54:03;;;;;;;11.00;5.70;;;;;;;-2.69;100.00;99705.19;109092;1254;71461;-52
2024/01/03 08:56:31;;;;;;;10.00;5.00;;;;;;;-2.67;100.00;99713.23;109089;1254;62647;-51
2024/01/03 08:58:58;;;;;;;7.80;4.60;;;;;;;-2.67;100.00;99712.35;109205;1254;62435;-52
2024/01/03 09:01:27;;;;;;;8.90;5.60;;;;;;;-2.68;100.00;99714.83;109114;1254;77143;-51
2024/01/03 09:03:55;;;;;;;9.00;5.30;;;;;;;-2.71;100.00;99716.35;109145;1254;67181;-51
2024/01/03 09:06:25;;;;;;;8.30;4.70;;;;;;;-2.76;100.00;99715.19;109124;1256;74780;-51
2024/01/03 09:08:54;;;;;;;10.50;5.00;;;;;;;-2.73;100.00;99713.81;109232;1254;60231;-51
2024/01/03 09:11:24;;;;;;;7.50;4.40;;;;;;;-2.72;100.00;99715.48;109162;1254;61047;-51
2024/01/03 09:13:52;;;;;;;8.50;4.90;;;;;;;-2.76;100.00;99713.70;109113;1254;73459;-52
2024/01/03 09:16:22;;;;;;;8.50;5.10;;;;;;;-2.77;100.00;99717.50;109269;1253;65642;-51
2024/01/03 09:18:50;;;;;;;10.20;6.00;;;;;;;-2.77;100.00;99719.34;109196;1254;71376;-51
2024/01/03 09:21:18;;;;;;;9.10;5.10;;;;;;;-2.78;100.00;99719.44;109076;1254;62176;-54
2024/01/03 09:23:46;;;;;;;10.00;5.20;;;;;;;-2.81;100.00;99718.44;109223;1254;62113;-51
2024/01/03 09:26:17;;;;;;;11.60;4.80;;;;;;;-2.80;100.00;99722.15;109214;1254;74745;-52
2024/01/03 09:28:47;;;;;;;9.30;4.70;;;;;;;-2.79;100.00;99718.16;109174;1254;69314;-52
2024/01/03 09:31:15;;;;;;;8.80;5.00;;;;;;;-2.74;100.00;99710.64;109079;1254;74091;-54
2024/01/03 09:33:43;;;;;;;9.20;5.10;;;;;;;-2.67;100.00;99714.09;109201;1254;59310;-51
2024/01/03 09:36:20;;;;;;;9.60;4.90;;;;;;;-2.64;100.00;99714.17;109141;1254;60490;-52
2024/01/03 09:38:53;;;;;;;8.50;5.20;;;;;;;-2.60;100.00;99712.02;109195;1254;74717;-54
2024/01/03 09:41:22;;;;;;;7.70;4.80;;;;;;;-2.57;100.00;99715.88;109140;1254;68109;-51
2024/01/03 09:43:52;;;;;;;8.30;4.60;;;;;;;-2.56;100.00;99710.20;109251;1254;72808;-52
2024/01/03 09:46:21;;;;;;;8.30;4.40;;;;;;;-2.58;100.00;99711.89;109072;1254;59355;-51
2024/01/03 09:48:49;;;;;;;8.60;4.40;;;;;;;-2.64;100.00;99715.05;109081;1254;60190;-52
2024/01/03 09:51:19;;;;;;;7.60;4.50;;;;;;;-2.73;100.00;99712.98;109207;1254;74752;-52
2024/01/03 09:53:50;;;;;;;8.20;4.80;;;;;;;-2.79;100.00;99708.79;109157;1254;68967;-51
2024/01/03 09:56:17;;;;;;;7.30;3.80;;;;;;;-2.84;100.00;99702.37;109035;1254;72780;-51
2024/01/03 09:58:45;;;;;;;7.20;3.80;;;;;;;-2.87;100.00;99703.42;109115;1254;60958;-51
2024/01/03 10:01:13;;;;;;;9.40;4.40;;;;;;;-2.90;100.00;99701.11;109134;1254;59518;-51
2024/01/03 10:03:41;;;;;;;6.80;4.40;;;;;;;-2.96;100.00;99701.21;109102;1255;76673;-51
2024/01/03 10:06:15;;;;;;;6.90;4.20;;;;;;;-2.97;100.00;99704.83;109173;1254;65763;-51
2024/01/03 10:09:01;;;;;;;7.90;4.90;;;;;;;-2.92;100.00;99699.73;109154;1254;72709;-54
2024/01/03 10:11:29;;;;;;;8.60;4.40;;;;;;;-2.86;100.00;99701.16;109179;1254;60161;-51
2024/01/03 10:13:57;;;;;;;7.50;3.90;;;;;;;-2.79;100.00;99695.71;109137;1254;63267;-51
2024/01/03 10:16:29;;;;;;;8.40;4.90;;;;;;;-2.71;100.00;99693.63;109044;1254;75111;-52
2024/01/03 10:19:16;;;;;;;8.20;4.30;;;;;;;-2.60;100.00;99692.68;109102;1254;66851;-51
2024/01/03 10:21:51;;;;;;;9.10;4.80;;;;;;;-2.47;100.00;99690.94;109229;1254;73754;-51
2024/01/03 10:24:26;;;;;;;10.40;5.50;;;;;;;-2.38;100.00;99685.20;109185;1254;61169;-52
2024/01/03 10:26:54;;;;;;;6.70;4.30;;;;;;;-2.31;100.00;99686.19;109321;1254;60300;-51
2024/01/03 10:29:22;;;;;;;9.00;4.90;;;;;;;-2.29;100.00;99676.71;109219;1254;74721;-52
2024/01/03 10:31:50;;;;;;;9.00;4.90;;;;;;;-2.23;100.00;99680.19;109148;1254;67916;-51
2024/01/03 10:34:22;;;;;;;8.10;4.40;;;;;;;-2.17;100.00;99676.86;109074;1256;72682;-52
2024/01/03 10:36:52;;;;;;;8.50;5.00;;;;;;;-2.14;100.00;99671.50;109119;1254;60266;-51
2024/01/03 10:39:20;;;;;;;9.10;4.90;;;;;;;-2.11;100.00;99666.16;109130;1254;60100;-51
2024/01/03 10:41:49;;;;;;;8.90;4.80;;;;;;;-2.10;100.00;99660.98;109267;1254;73420;-51
2024/01/03 10:44:17;;;;;;;8.00;4.10;;;;;;;-2.14;100.00;99659.45;109107;1254;65836;-51
2024/01/03 10:46:49;;;;;;;8.10;4.50;;;;;;;-2.22;100.00;99660.36;109153;1254;74551;-51
2024/01/03 10:49:16;;;;;;;9.40;4.80;;;;;;;-2.27;100.00;99663.11;109310;1254;60120;-51
2024/01/03 10:51:47;;;;;;;8.40;5.10;;;;;;;-2.28;100.00;99663.90;109183;1254;62170;-51
2024/01/03 10:54:17;;;;;;;7.70;4.20;;;;;;;-2.35;100.00;99668.52;109289;1254;78058;-53
2024/01/03 10:56:49;;;;;;;8.80;4.70;;;;;;;-2.44;100.00;99675.45;109258;1254;66985;-52
2024/01/03 10:59:17;;;;;;;7.90;4.30;;;;;;;-2.52;100.00;99671.59;109123;1254;72718;-52
2024/01/03 11:02:06;;;;;;;8.70;4.40;;;;;;;-2.53;100.00;99672.73;109203;1254;59343;-52
2024/01/03 11:04:58;;;;;;;8.00;4.50;;;;;;;-2.50;100.00;99672.16;109094;1254;61773;-52
2024/01/03 11:07:28;;;;;;;12.60;5.90;;;;;;;-2.48;100.00;99670.98;109236;1254;76573;-52
2024/01/03 11:09:55;;;;;;;10.90;6.20;;;;;;;-2.47;100.00;99661.23;109212;1254;68009;-52
2024/01/03 11:12:27;;;;;;;10.10;5.80;;;;;;;-2.44;100.00;99651.32;109146;1254;73790;-53
2024/01/03 11:14:55;;;;;;;10.70;5.50;;;;;;;-2.40;100.00;99654.27;109089;1254;60497;-53
2024/01/03 11:17:33;;;;;;;8.60;4.60;;;;;;;-2.38;100.00;99658.70;109123;1254;59473;-52
2024/01/03 11:20:08;;;;;;;8.40;4.60;;;;;;;-2.34;100.00;99657.39;109240;1254;72672;-52
2024/01/03 11:22:55;;;;;;;9.80;5.70;;;;;;;-2.32;100.00;99655.80;109067;1254;66940;-52
2024/01/03 11:25:49;;;;;;;10.10;5.30;;;;;;;-2.32;100.00;99655.80;109243;1253;74166;-52